Flight Track Log - Related Links

Times and Time Zones

All times are in EDT time to prevent confusion due to time zone crossing. See the N200PZ flight status page for this flight to view local times or setup timezone preferences in your user account.

Time Position Orientation Groundspeed Altitude Reporting Facility
EDT Latitude Longitude Course Direction KTS MPH feet Rate Location/Type
Tue 04:51:53 PM 41.9103 -91.8122 343° North 144 166 4,900  Level Minneapolis Center
Tue 04:52:35 PM 41.9369 -91.8233 343° North 167 192 5,800 1,788 Climbing Chicago Center
Tue 04:53:37 PM 41.9881 -91.8644 329° Northwest 172 198 8,000 1,839 Climbing Chicago Center
Tue 04:54:39 PM 42.0333 -91.8953 333° Northwest 178 205 9,600 1,452 Climbing Chicago Center
Tue 04:55:41 PM 42.0792 -91.9272 333° Northwest 185 213 11,000 1,258 Climbing Chicago Center
Tue 04:56:43 PM 42.1272 -91.9594 334° Northwest 190 219 12,200 1,258 Climbing Chicago Center
Tue 04:57:45 PM 42.1833 -91.9981 333° Northwest 191 220 13,600 1,258 Climbing Chicago Center
Tue 04:58:47 PM 42.2294 -92.0314 332° Northwest 191 220 14,800 1,104 Climbing Chicago Center
Tue 04:59:50 PM 42.2750 -92.0608 334° Northwest 184 212 15,900 624 Climbing Chicago Center
Tue 05:00:52 PM 42.3258 -92.0931 335° Northwest 202 232 16,100 97 Climbing Chicago Center
Tue 05:01:54 PM 42.3808 -92.1292 334° Northwest 218 251 16,100  Level Chicago Center
Tue 05:02:56 PM 42.4456 -92.1778 331° Northwest 221 254 16,100 -48 Level Chicago Center
Tue 05:03:58 PM 42.4986 -92.2203 329° Northwest 222 255 16,000  Descending Chicago Center
Tue 05:05:00 PM 42.5550 -92.2569 334° Northwest 226 260 16,100  Climbing Chicago Center
Tue 05:06:03 PM 42.6106 -92.2928 335° Northwest 226 260 16,000  Descending Chicago Center
Tue 05:07:05 PM 42.6658 -92.3306 333° Northwest 225 259 16,100  Climbing Chicago Center
Tue 05:08:07 PM 42.7189 -92.3753 328° Northwest 225 259 16,000  Descending Chicago Center
Tue 05:09:09 PM 42.7844 -92.4203 333° Northwest 225 259 16,100 48 Climbing Chicago Center
Tue 05:10:11 PM 42.8417 -92.4536 337° Northwest 225 259 16,100 -48 Level Chicago Center
Tue 05:11:13 PM 42.8975 -92.4908 334° Northwest 225 259 16,000  Descending Chicago Center
Tue 05:12:15 PM 42.9528 -92.5314 332° Northwest 225 259 16,100  Climbing Chicago Center
Tue 05:13:17 PM 43.0050 -92.5725 330° Northwest 225 259 16,000  Descending Chicago Center
Tue 05:14:20 PM 43.0689 -92.6225 330° Northwest 225 259 16,100 48 Climbing Chicago Center
Tue 05:15:22 PM 43.1233 -92.6589 334° Northwest 223 257 16,100 -48 Level Chicago Center
Tue 05:16:24 PM 43.1775 -92.6969 333° Northwest 223 257 16,000  Descending Chicago Center
Tue 05:17:26 PM 43.2314 -92.7369 332° Northwest 223 257 16,100  Climbing Chicago Center
Tue 05:18:28 PM 43.2944 -92.7831 332° Northwest 221 254 16,000 -48 Descending Chicago Center
Tue 05:19:30 PM 43.3500 -92.8197 334° Northwest 221 254 16,000  Level Chicago Center
Tue 05:20:32 PM 43.4044 -92.8611 331° Northwest 221 254 16,000  Level Chicago Center
Tue 05:21:34 PM 43.4581 -92.9019 331° Northwest 221 254 16,000  Level Chicago Center
Tue 05:22:37 PM 43.5136 -92.9381 335° Northwest 221 254 16,000  Level Chicago Center
Tue 05:23:58 PM 43.5936 -92.9919 334° Northwest 222 255 16,000 -42 Level Minneapolis Center
Tue 05:25:01 PM 43.6475 -93.0344 330° Northwest 222 255 15,900 -624 Descending Minneapolis Center
Tue 05:26:03 PM 43.7203 -93.0772 337° Northwest 232 267 14,700 -968 Descending Minneapolis Center
Tue 05:27:05 PM 43.7819 -93.1219 332° Northwest 245 282 13,900 -968 Descending Minneapolis Center
Tue 05:28:07 PM 43.8450 -93.1725 330° Northwest 247 284 12,700 -1,161 Descending Minneapolis Center
Tue 05:29:09 PM 43.9083 -93.2206 331° Northwest 255 293 11,500 -1,065 Descending Minneapolis Center
Tue 05:30:11 PM 43.9722 -93.2644 334° Northwest 256 295 10,500 -1,113 Descending Minneapolis Center
Tue 05:31:13 PM 44.0422 -93.3156 332° Northwest 254 292 9,200 -1,258 Descending Minneapolis Center
Tue 05:32:15 PM 44.1081 -93.3692 330° Northwest 254 292 7,900 -1,056 Descending Minneapolis Center
Tue 05:33:18 PM 44.1683 -93.4183 330° Northwest 255 293 7,000 -480 Descending Minneapolis Center
Tue 05:34:20 PM 44.2278 -93.4617 332° Northwest 243 280 6,900  Descending Minneapolis Center
Tue 05:35:22 PM 44.2897 -93.4639 359° North 232 267 7,000 -339 Climbing Minneapolis Center
Tue 05:36:24 PM 44.3536 -93.4575 North 229 264 6,200 -919 Descending Minneapolis Center
Tue 05:37:26 PM 44.4208 -93.4553 North 238 274 5,100 -1,210 Descending Minneapolis Center
Tue 05:38:28 PM 44.4997 -93.4528 North 234 269 3,700 -968 Descending Minneapolis Center
Tue 05:39:30 PM 44.5589 -93.4517 North 222 255 3,100 -339 Descending Minneapolis Center
Tue 05:40:32 PM 44.6169 -93.4492 North 207 238 3,000 -48 Descending Minneapolis Center
Tue 05:41:34 PM 44.6697 -93.4414 North 198 228 3,000 -240 Level Minneapolis Center
Tue 05:42:37 PM 44.7236 -93.4458 357° North 196 226 2,500 -288 Descending Minneapolis Center
Tue 05:43:39 PM 44.7697 -93.4703 339° North 177 204 2,400 -48 Descending Minneapolis Center
Tue 05:44:41 PM 44.7933 -93.4275 52° Northeast 157 181 2,400 -435 Level Minneapolis Center
Tue 05:45:43 PM 44.8211 -93.4156 17° North 124 143 1,500 -726 Descending Minneapolis Center
Tue 05:46:45 PM 44.8269 -93.4525 283° West 99 114 900 -581 Descending Minneapolis Center

Login

Don't have an account? Register now (free) for customized features, flight alerts, and more!